Time;durP1;ratioP1;P1;durP2;ratioP2;P2;SDS_P1;SDS_P2;PMS_P1;PMS_P2;Temp;Humidity;BMP_temperature;BMP_pressure;BME280_temperature;BME280_humidity;BME280_pressure;Samples;Min_cycle;Max_cycle;Signal;HPM_P1;HPM_P2
2021/09/10 00:00:18;;;;;;;14.82;11.95;;;20.20;91.70;;;;;;5053809;28;20055;-37
2021/09/10 00:02:44;;;;;;;15.15;12.18;;;20.30;91.50;;;;;;5053051;28;20108;-39
2021/09/10 00:05:10;;;;;;;17.15;11.93;;;20.30;90.70;;;;;;5053814;28;20022;-37
2021/09/10 00:07:36;;;;;;;16.15;11.48;;;20.30;91.00;;;;;;5053176;28;20118;-37
2021/09/10 00:10:03;;;;;;;15.98;11.40;;;20.20;91.10;;;;;;5053089;28;20057;-37
2021/09/10 00:12:28;;;;;;;17.02;12.43;;;20.10;91.10;;;;;;5053305;28;20095;-37
2021/09/10 00:14:54;;;;;;;17.08;13.15;;;20.10;91.10;;;;;;5052933;28;20036;-37
2021/09/10 00:17:19;;;;;;;19.88;14.43;;;20.20;91.20;;;;;;5052900;28;20029;-37
2021/09/10 00:19:45;;;;;;;17.58;12.80;;;20.30;90.90;;;;;;5052727;28;20377;-37
2021/09/10 00:22:11;;;;;;;17.13;11.75;;;20.30;90.70;;;;;;5053093;28;20029;-37
2021/09/10 00:24:36;;;;;;;21.08;13.25;;;20.30;90.50;;;;;;5052816;28;20108;-37
2021/09/10 00:27:03;;;;;;;24.70;14.30;;;20.40;89.90;;;;;;5053007;28;20090;-37
2021/09/10 00:29:29;;;;;;;27.58;14.63;;;20.40;90.00;;;;;;5052898;28;20071;-37
2021/09/10 00:31:54;;;;;;;15.63;12.02;;;20.40;89.90;;;;;;5052622;28;20381;-37
2021/09/10 00:34:20;;;;;;;18.88;13.13;;;20.30;90.20;;;;;;5051233;28;20082;-37
2021/09/10 00:36:46;;;;;;;19.33;12.23;;;20.30;90.10;;;;;;5052574;28;20171;-37
2021/09/10 00:39:13;;;;;;;25.00;12.65;;;20.20;90.20;;;;;;5053024;28;20071;-37
2021/09/10 00:41:40;;;;;;;16.00;11.43;;;20.10;90.60;;;;;;5052467;28;20021;-37
2021/09/10 00:44:05;;;;;;;22.30;12.52;;;20.00;90.80;;;;;;5052578;28;20025;-37
2021/09/10 00:46:31;;;;;;;14.93;11.60;;;20.00;91.10;;;;;;5052260;28;20396;-38
2021/09/10 00:48:58;;;;;;;18.70;12.98;;;20.10;90.80;;;;;;5052376;28;20067;-38
2021/09/10 00:51:24;;;;;;;15.52;12.70;;;20.20;90.70;;;;;;5052493;28;20025;-37
2021/09/10 00:53:49;;;;;;;17.23;12.13;;;20.20;90.30;;;;;;5052822;28;20021;-37
2021/09/10 00:56:15;;;;;;;18.30;12.05;;;20.10;90.40;;;;;;5052666;28;20096;-37
2021/09/10 00:58:41;;;;;;;16.67;12.07;;;20.00;90.70;;;;;;5052747;28;20432;-38
2021/09/10 01:01:08;;;;;;;15.32;11.93;;;20.00;90.80;;;;;;5052029;28;20081;-37
2021/09/10 01:03:33;;;;;;;24.45;12.43;;;20.00;90.40;;;;;;5051969;28;20025;-37
2021/09/10 01:06:01;;;;;;;17.05;11.27;;;20.10;90.30;;;;;;5051890;28;20029;-37
2021/09/10 01:08:30;;;;;;;20.88;12.75;;;20.00;90.00;;;;;;5051918;28;20029;-38
2021/09/10 01:10:56;;;;;;;14.45;10.63;;;20.10;90.10;;;;;;5052249;28;20503;-37
2021/09/10 01:13:23;;;;;;;13.20;9.93;;;19.80;90.30;;;;;;5051937;28;20055;-37
2021/09/10 01:15:49;;;;;;;18.00;11.02;;;19.80;90.70;;;;;;5051882;28;20338;-37
2021/09/10 01:18:15;;;;;;;13.50;10.30;;;19.80;90.80;;;;;;5051862;28;20052;-37
2021/09/10 01:20:40;;;;;;;14.38;10.38;;;19.80;91.10;;;;;;5052097;28;20041;-37
2021/09/10 01:23:06;;;;;;;14.95;10.38;;;19.80;91.00;;;;;;5050561;28;20432;-37
2021/09/10 01:25:32;;;;;;;12.93;10.40;;;19.80;91.10;;;;;;5052486;28;20053;-38
2021/09/10 01:28:00;;;;;;;17.98;10.35;;;19.80;91.10;;;;;;5052210;28;20044;-37
2021/09/10 01:30:34;;;;;;;10.90;9.52;;;19.80;91.20;;;;;;5052004;28;20029;-37
2021/09/10 01:33:03;;;;;;;15.10;11.48;;;19.80;91.20;;;;;;5052196;28;20021;-37
2021/09/10 01:35:29;;;;;;;13.63;11.07;;;20.00;90.70;;;;;;5052030;28;20025;-37
2021/09/10 01:37:56;;;;;;;15.48;10.20;;;19.90;90.40;;;;;;5052174;28;20033;-37
2021/09/10 01:40:22;;;;;;;14.05;10.57;;;19.80;90.80;;;;;;5052055;28;20056;-37
2021/09/10 01:42:48;;;;;;;15.20;10.63;;;19.70;91.20;;;;;;5051965;28;20033;-37
2021/09/10 01:45:14;;;;;;;16.15;11.80;;;19.80;91.40;;;;;;5051918;28;20025;-37
2021/09/10 01:47:40;;;;;;;17.50;10.98;;;19.80;91.20;;;;;;5051788;28;20045;-37
2021/09/10 01:50:12;;;;;;;19.13;10.57;;;19.80;91.10;;;;;;5052284;28;20151;-37
2021/09/10 01:52:38;;;;;;;13.18;9.85;;;19.80;91.10;;;;;;5051858;28;20029;-37
2021/09/10 01:55:06;;;;;;;18.80;11.10;;;19.80;91.30;;;;;;5054773;28;20024;-37
2021/09/10 01:57:31;;;;;;;13.23;9.73;;;19.90;90.70;;;;;;5055926;28;20017;-38
2021/09/10 01:59:57;;;;;;;17.15;11.60;;;19.90;90.40;;;;;;5055375;28;20052;-37
2021/09/10 02:02:23;;;;;;;15.63;10.32;;;20.00;89.80;;;;;;5055500;28;20377;-37
2021/09/10 02:04:48;;;;;;;14.10;10.23;;;20.10;89.80;;;;;;5053996;28;20036;-37
2021/09/10 02:07:14;;;;;;;15.43;10.30;;;20.10;89.40;;;;;;5055200;28;20029;-37
2021/09/10 02:09:40;;;;;;;23.30;11.23;;;20.00;89.70;;;;;;5055227;28;20100;-38
2021/09/10 02:12:06;;;;;;;9.52;8.35;;;20.00;90.10;;;;;;5055187;28;20018;-37
2021/09/10 02:14:32;;;;;;;12.43;8.63;;;19.90;90.20;;;;;;5055087;28;20051;-37
2021/09/10 02:16:58;;;;;;;13.23;9.02;;;19.80;90.40;;;;;;5055173;28;20112;-37
2021/09/10 02:19:24;;;;;;;10.15;8.68;;;19.80;90.60;;;;;;5055422;28;20126;-38
2021/09/10 02:21:50;;;;;;;11.48;8.68;;;19.90;90.40;;;;;;5055095;28;20052;-38
2021/09/10 02:24:17;;;;;;;10.73;8.80;;;20.00;89.80;;;;;;5055047;28;20037;-38
2021/09/10 02:26:43;;;;;;;16.25;9.48;;;20.10;89.60;;;;;;5055205;28;20029;-38
2021/09/10 02:29:08;;;;;;;12.90;8.70;;;20.30;89.00;;;;;;5055010;28;20067;-38
2021/09/10 02:31:34;;;;;;;11.05;8.35;;;20.20;89.10;;;;;;5055001;28;20048;-38
2021/09/10 02:33:59;;;;;;;14.40;9.55;;;20.10;89.70;;;;;;5054863;28;20032;-39
2021/09/10 02:36:25;;;;;;;12.25;10.38;;;20.10;89.50;;;;;;5054789;28;20021;-38
2021/09/10 02:38:51;;;;;;;13.95;10.65;;;20.10;90.10;;;;;;5055171;28;20048;-38
2021/09/10 02:41:16;;;;;;;17.40;10.07;;;20.20;89.90;;;;;;5054790;28;20028;-38
2021/09/10 02:43:42;;;;;;;10.20;9.07;;;20.10;89.80;;;;;;5054678;28;20025;-38
2021/09/10 02:46:08;;;;;;;13.25;10.10;;;19.90;90.60;;;;;;5054654;28;20112;-38
2021/09/10 02:48:33;;;;;;;12.30;9.55;;;19.90;91.40;;;;;;5054897;28;20090;-38
2021/09/10 02:50:59;;;;;;;11.23;9.88;;;19.90;91.20;;;;;;5054547;28;20104;-38
2021/09/10 02:53:25;;;;;;;15.25;10.85;;;19.90;90.90;;;;;;5054433;28;20036;-38
2021/09/10 02:55:51;;;;;;;13.00;10.45;;;19.90;91.20;;;;;;5054403;28;20535;-38
2021/09/10 02:58:17;;;;;;;16.48;10.10;;;19.80;90.90;;;;;;5054686;28;20053;-38
2021/09/10 03:00:42;;;;;;;18.33;10.18;;;19.70;91.40;;;;;;5054377;28;20053;-38
2021/09/10 03:03:08;;;;;;;17.60;10.85;;;19.70;91.80;;;;;;5054647;28;20028;-38
2021/09/10 03:05:34;;;;;;;13.63;10.93;;;19.70;91.60;;;;;;5054293;28;20052;-36
2021/09/10 03:08:00;;;;;;;12.27;9.60;;;19.70;91.30;;;;;;5054391;28;20048;-38
2021/09/10 03:10:26;;;;;;;15.25;10.95;;;19.60;91.80;;;;;;5054222;28;20021;-38
2021/09/10 03:12:51;;;;;;;12.70;10.50;;;19.50;92.20;;;;;;5054385;28;20124;-38
2021/09/10 03:15:17;;;;;;;15.90;11.07;;;19.40;92.40;;;;;;5054357;28;20483;-38
2021/09/10 03:17:43;;;;;;;18.25;12.07;;;19.40;92.60;;;;;;5053057;28;20027;-38
2021/09/10 03:20:10;;;;;;;14.80;12.20;;;19.40;92.40;;;;;;5053799;28;20057;-38
2021/09/10 03:22:36;;;;;;;20.42;12.63;;;19.40;92.30;;;;;;5053760;28;20024;-36
2021/09/10 03:25:03;;;;;;;17.10;12.60;;;19.50;92.20;;;;;;5053629;28;20029;-36
2021/09/10 03:27:29;;;;;;;15.57;12.20;;;19.50;91.90;;;;;;5052998;28;20025;-36
2021/09/10 03:29:55;;;;;;;17.90;12.23;;;19.30;92.10;;;;;;5053604;28;20040;-36
2021/09/10 03:32:21;;;;;;;16.60;12.63;;;19.30;92.40;;;;;;5053604;28;20341;-36
2021/09/10 03:34:47;;;;;;;19.48;12.05;;;19.30;92.40;;;;;;5053168;28;20028;-36
2021/09/10 03:37:13;;;;;;;17.10;12.43;;;19.30;92.50;;;;;;5053251;28;20032;-36
2021/09/10 03:39:40;;;;;;;19.48;12.82;;;19.20;92.70;;;;;;5053076;28;20492;-36
2021/09/10 03:42:05;;;;;;;14.98;11.95;;;19.20;92.80;;;;;;5053053;28;20365;-36
2021/09/10 03:44:31;;;;;;;18.80;13.45;;;19.20;92.70;;;;;;5053181;28;20174;-35
2021/09/10 03:46:59;;;;;;;19.13;13.27;;;19.20;92.90;;;;;;5053170;28;20041;-36
2021/09/10 03:49:26;;;;;;;22.55;14.00;;;19.10;93.00;;;;;;5053735;28;20043;-38
2021/09/10 03:51:52;;;;;;;20.00;14.88;;;19.10;93.10;;;;;;5053362;28;20032;-35
2021/09/10 03:54:18;;;;;;;23.13;14.25;;;19.20;93.10;;;;;;5053155;28;20082;-36
2021/09/10 03:56:43;;;;;;;23.15;15.30;;;19.20;92.80;;;;;;5053221;28;20044;-36
2021/09/10 03:59:09;;;;;;;19.95;14.77;;;19.20;92.70;;;;;;5052986;28;20032;-39
2021/09/10 04:01:35;;;;;;;21.23;15.75;;;19.20;92.60;;;;;;5053021;28;20028;-36
2021/09/10 04:04:00;;;;;;;19.77;14.50;;;19.30;92.20;;;;;;5053456;28;20063;-36
2021/09/10 04:06:26;;;;;;;17.38;13.82;;;19.30;92.00;;;;;;5052962;28;20029;-37
2021/09/10 04:08:51;;;;;;;17.73;13.77;;;19.10;92.20;;;;;;5052880;28;20025;-36
2021/09/10 04:11:17;;;;;;;21.10;14.20;;;19.10;92.80;;;;;;5052867;28;20100;-37
2021/09/10 04:13:43;;;;;;;14.15;12.15;;;19.10;92.70;;;;;;5052977;28;20318;-36
2021/09/10 04:16:08;;;;;;;17.35;12.25;;;19.00;93.00;;;;;;5052744;28;20389;-36
2021/09/10 04:18:34;;;;;;;17.27;13.63;;;19.00;92.90;;;;;;5052340;28;20094;-36
2021/09/10 04:21:00;;;;;;;18.55;13.43;;;19.00;92.80;;;;;;5052857;28;20047;-36
2021/09/10 04:23:25;;;;;;;15.93;12.65;;;18.90;92.70;;;;;;5052978;28;20029;-36
2021/09/10 04:25:51;;;;;;;17.63;13.52;;;18.80;93.00;;;;;;5052262;28;20033;-36
2021/09/10 04:28:16;;;;;;;20.45;14.45;;;18.80;93.10;;;;;;5052221;28;20071;-36
2021/09/10 04:30:42;;;;;;;18.48;14.25;;;18.80;93.20;;;;;;5052573;28;20131;-36
2021/09/10 04:33:08;;;;;;;22.00;15.40;;;18.80;93.60;;;;;;5052487;28;20028;-36
2021/09/10 04:35:33;;;;;;;20.52;14.27;;;18.90;93.50;;;;;;5052682;28;20021;-37
2021/09/10 04:37:59;;;;;;;21.73;14.98;;;18.90;93.50;;;;;;5052684;28;20028;-37
2021/09/10 04:40:25;;;;;;;21.25;14.93;;;18.80;93.30;;;;;;5052907;28;20025;-37
2021/09/10 04:42:50;;;;;;;20.63;14.57;;;18.80;93.60;;;;;;5052574;28;20131;-37
2021/09/10 04:45:16;;;;;;;30.15;14.52;;;18.80;93.60;;;;;;5052409;28;20029;-37
2021/09/10 04:47:41;;;;;;;16.92;13.43;;;18.80;93.60;;;;;;5052176;28;20131;-37
2021/09/10 04:50:07;;;;;;;20.17;12.60;;;18.60;93.60;;;;;;5052451;28;20086;-38
2021/09/10 04:52:35;;;;;;;17.70;13.05;;;18.60;93.80;;;;;;5053039;28;20033;-37
2021/09/10 04:55:00;;;;;;;19.23;13.20;;;18.60;94.00;;;;;;5052479;28;20017;-37
2021/09/10 04:57:26;;;;;;;18.00;12.98;;;18.60;93.80;;;;;;5052423;28;20041;-37
2021/09/10 04:59:53;;;;;;;20.70;11.68;;;18.50;93.90;;;;;;5052540;28;20021;-37
2021/09/10 05:02:19;;;;;;;18.08;13.07;;;18.60;93.90;;;;;;5052320;28;20476;-37
2021/09/10 05:04:45;;;;;;;16.17;12.90;;;18.60;94.10;;;;;;5052772;28;20053;-38
2021/09/10 05:07:10;;;;;;;18.33;12.60;;;18.70;94.20;;;;;;5052289;28;20021;-37
2021/09/10 05:09:36;;;;;;;18.02;12.82;;;18.60;93.90;;;;;;5052467;28;20021;-36
2021/09/10 05:12:03;;;;;;;21.58;12.55;;;18.50;93.90;;;;;;5052330;28;20071;-36
2021/09/10 05:14:29;;;;;;;17.55;13.32;;;18.50;93.90;;;;;;5051918;28;20119;-37
2021/09/10 05:16:55;;;;;;;16.70;12.50;;;18.60;93.80;;;;;;5052181;28;20029;-36
2021/09/10 05:19:21;;;;;;;17.77;13.57;;;18.60;93.70;;;;;;5051888;28;20154;-36
2021/09/10 05:21:46;;;;;;;20.50;13.80;;;18.60;93.60;;;;;;5051140;28;20377;-36
2021/09/10 05:24:12;;;;;;;16.60;12.15;;;18.60;93.70;;;;;;5050645;28;20532;-36
2021/09/10 05:26:37;;;;;;;18.75;13.27;;;18.60;93.60;;;;;;5051995;28;20390;-36
2021/09/10 05:29:03;;;;;;;18.70;12.52;;;18.60;93.70;;;;;;5052876;28;20387;-36
2021/09/10 05:31:29;;;;;;;22.92;12.88;;;18.70;93.80;;;;;;5055875;28;20391;-37
2021/09/10 05:33:55;;;;;;;20.60;14.02;;;18.70;93.70;;;;;;5054836;28;20035;-37
2021/09/10 05:36:20;;;;;;;16.48;13.35;;;18.80;93.70;;;;;;5055811;28;20109;-37
2021/09/10 05:38:46;;;;;;;23.75;13.90;;;18.80;93.20;;;;;;5055673;28;20056;-37
2021/09/10 05:41:12;;;;;;;19.92;15.00;;;18.80;92.90;;;;;;5055712;28;20025;-36
2021/09/10 05:43:37;;;;;;;24.10;16.73;;;18.80;92.80;;;;;;5055821;28;20025;-36
2021/09/10 05:46:03;;;;;;;38.45;16.38;;;18.90;92.80;;;;;;5055244;28;20052;-36
2021/09/10 05:48:28;;;;;;;24.05;16.20;;;19.00;92.10;;;;;;5055027;28;20040;-36
2021/09/10 05:50:54;;;;;;;24.30;15.27;;;19.00;92.00;;;;;;5055417;28;20031;-37
2021/09/10 05:53:20;;;;;;;40.45;16.98;;;19.00;92.00;;;;;;5056014;28;20045;-36
2021/09/10 05:55:45;;;;;;;36.63;15.05;;;19.10;92.10;;;;;;5054994;28;20067;-36
2021/09/10 05:58:11;;;;;;;44.17;15.35;;;19.10;91.50;;;;;;5055504;28;20111;-36
2021/09/10 06:00:37;;;;;;;41.55;14.88;;;19.10;91.60;;;;;;5055524;28;20454;-36
2021/09/10 06:03:04;;;;;;;35.22;14.95;;;19.00;91.70;;;;;;5055055;28;20028;-36
2021/09/10 06:05:30;;;;;;;36.03;15.02;;;18.90;92.00;;;;;;5054271;28;20024;-37
2021/09/10 06:07:56;;;;;;;52.13;17.55;;;18.90;92.40;;;;;;5054946;28;20418;-37
2021/09/10 06:10:22;;;;;;;48.42;16.33;;;18.90;92.30;;;;;;5054828;28;20500;-36
2021/09/10 06:12:48;;;;;;;48.03;16.38;;;19.10;92.00;;;;;;5054978;28;20039;-37
2021/09/10 06:15:14;;;;;;;47.00;16.42;;;19.00;91.90;;;;;;5054993;28;20531;-37
2021/09/10 06:17:40;;;;;;;47.20;16.00;;;18.90;92.30;;;;;;5054896;28;20037;-36
2021/09/10 06:20:06;;;;;;;34.47;14.90;;;19.00;92.10;;;;;;5053338;28;20029;-42
2021/09/10 06:22:32;;;;;;;34.47;13.77;;;19.20;91.70;;;;;;5054669;28;20028;-37
2021/09/10 06:24:59;;;;;;;16.15;13.27;;;19.10;91.50;;;;;;5054686;28;20083;-36
2021/09/10 06:27:24;;;;;;;21.85;12.05;;;19.10;91.80;;;;;;5054749;28;20036;-36
2021/09/10 06:29:50;;;;;;;20.08;14.52;;;19.10;91.80;;;;;;5054853;28;20423;-36
2021/09/10 06:32:16;;;;;;;20.30;13.38;;;19.20;91.50;;;;;;5055471;28;20017;-36
2021/09/10 06:34:42;;;;;;;24.17;12.30;;;19.30;91.20;;;;;;5054663;28;20377;-36
2021/09/10 06:37:07;;;;;;;20.88;13.02;;;19.50;91.00;;;;;;5054915;28;20028;-36
2021/09/10 06:39:34;;;;;;;21.65;12.77;;;19.60;90.80;;;;;;5054319;28;20037;-36
2021/09/10 06:42:00;;;;;;;20.73;14.52;;;19.60;90.40;;;;;;5054378;28;20035;-37
2021/09/10 06:44:26;;;;;;;19.33;13.48;;;20.20;89.30;;;;;;5054374;28;20103;-36
2021/09/10 06:46:51;;;;;;;26.98;15.02;;;20.30;88.60;;;;;;5054137;28;20082;-36
2021/09/10 06:49:17;;;;;;;20.85;12.93;;;20.50;87.50;;;;;;5054439;28;20028;-36
2021/09/10 06:51:43;;;;;;;22.23;13.25;;;20.60;87.00;;;;;;5053963;28;20045;-37
2021/09/10 06:54:08;;;;;;;20.60;10.40;;;20.50;87.70;;;;;;5052505;28;20032;-37
2021/09/10 06:56:35;;;;;;;23.20;10.60;;;20.50;87.90;;;;;;5054584;28;20108;-37
2021/09/10 06:59:00;;;;;;;22.63;12.13;;;20.60;87.60;;;;;;5053915;28;20037;-37
2021/09/10 07:01:26;;;;;;;14.80;10.35;;;20.80;87.00;;;;;;5052951;28;20112;-37
2021/09/10 07:03:52;;;;;;;13.10;10.60;;;20.80;87.20;;;;;;5054217;28;20090;-37
2021/09/10 07:06:18;;;;;;;15.10;11.10;;;20.80;86.80;;;;;;5054124;28;20384;-37
2021/09/10 07:08:43;;;;;;;16.15;10.60;;;20.80;86.60;;;;;;5054179;28;20112;-37
2021/09/10 07:11:09;;;;;;;13.07;9.85;;;20.80;87.40;;;;;;5054509;28;20453;-38
2021/09/10 07:13:35;;;;;;;13.43;10.13;;;21.10;86.30;;;;;;5054188;28;20477;-37
2021/09/10 07:16:00;;;;;;;12.48;10.65;;;21.20;85.60;;;;;;5054483;28;20028;-37
2021/09/10 07:18:26;;;;;;;12.88;9.65;;;21.50;84.80;;;;;;5053934;28;20445;-37
2021/09/10 07:20:52;;;;;;;13.30;9.70;;;21.80;83.70;;;;;;5053419;28;20032;-37
2021/09/10 07:23:21;;;;;;;13.50;10.80;;;21.80;82.90;;;;;;5053963;28;20049;-37
2021/09/10 07:25:46;;;;;;;12.07;8.60;;;21.80;84.00;;;;;;5053798;28;20033;-37
2021/09/10 07:28:12;;;;;;;10.93;9.23;;;21.80;84.00;;;;;;5053559;28;20028;-37
2021/09/10 07:30:37;;;;;;;14.38;9.73;;;21.90;84.10;;;;;;5053456;28;20040;-37
2021/09/10 07:33:03;;;;;;;12.05;8.68;;;22.10;82.70;;;;;;5053139;28;20017;-37
2021/09/10 07:35:29;;;;;;;10.85;7.80;;;22.20;82.60;;;;;;5052753;28;20104;-37
2021/09/10 07:37:54;;;;;;;11.45;6.72;;;22.20;82.00;;;;;;5053089;28;20033;-38
2021/09/10 07:40:20;;;;;;;13.52;7.25;;;22.10;82.20;;;;;;5053073;28;20029;-37
2021/09/10 07:42:46;;;;;;;10.18;7.55;;;22.10;82.50;;;;;;5052557;28;20060;-37
2021/09/10 07:45:13;;;;;;;10.13;6.50;;;22.10;81.90;;;;;;5053362;28;20112;-37
2021/09/10 07:47:39;;;;;;;13.20;7.10;;;22.10;82.20;;;;;;5053459;28;20041;-37
2021/09/10 07:50:06;;;;;;;10.85;6.85;;;22.00;82.00;;;;;;5052017;28;20539;-37
2021/09/10 07:52:31;;;;;;;9.20;6.90;;;21.80;82.90;;;;;;5052775;28;20021;-37
2021/09/10 07:54:57;;;;;;;10.95;6.50;;;22.00;82.40;;;;;;5053399;28;20040;-37
2021/09/10 07:57:23;;;;;;;10.75;7.15;;;22.30;80.60;;;;;;5052803;28;20025;-37
2021/09/10 07:59:55;;;;;;;7.80;5.57;;;22.30;81.10;;;;;;5053100;28;20036;-37
2021/09/10 08:02:26;;;;;;;8.82;7.78;;;22.20;80.90;;;;;;5053431;28;20104;-37
2021/09/10 08:04:51;;;;;;;13.32;6.20;;;22.30;79.80;;;;;;5053335;28;20027;-37
2021/09/10 08:07:17;;;;;;;10.27;5.82;;;22.50;79.00;;;;;;5051495;28;20025;-36
2021/09/10 08:09:43;;;;;;;8.80;6.80;;;22.50;79.80;;;;;;5052134;28;20028;-37
2021/09/10 08:12:08;;;;;;;7.85;5.70;;;22.60;78.30;;;;;;5053052;28;20047;-37
2021/09/10 08:14:34;;;;;;;8.25;5.03;;;22.80;77.90;;;;;;5052163;28;20522;-37
2021/09/10 08:16:59;;;;;;;8.30;4.85;;;23.00;77.20;;;;;;5052701;28;20075;-36
2021/09/10 08:19:25;;;;;;;7.07;4.43;;;23.10;75.50;;;;;;5051893;28;20024;-37
2021/09/10 08:21:51;;;;;;;8.75;4.95;;;23.20;76.30;;;;;;5052254;28;20025;-37
2021/09/10 08:24:16;;;;;;;7.88;5.03;;;23.70;74.20;;;;;;5050785;28;20499;-37
2021/09/10 08:26:42;;;;;;;7.18;4.13;;;24.30;72.80;;;;;;5052488;28;20063;-37
2021/09/10 08:29:07;;;;;;;7.53;4.00;;;24.50;71.60;;;;;;5051251;28;20447;-37
2021/09/10 08:31:33;;;;;;;7.45;4.05;;;24.60;70.90;;;;;;5051921;28;20021;-37
2021/09/10 08:34:00;;;;;;;11.43;4.38;;;24.60;69.20;;;;;;5052065;28;20051;-37
2021/09/10 08:36:26;;;;;;;5.78;3.45;;;25.30;66.40;;;;;;5050704;28;20427;-37
2021/09/10 08:38:52;;;;;;;4.30;3.90;;;24.80;67.40;;;;;;5051485;28;20108;-37
2021/09/10 08:41:22;;;;;;;4.55;3.45;;;25.10;67.50;;;;;;5050472;28;20052;-37
2021/09/10 08:43:48;;;;;;;10.25;3.53;;;26.10;64.00;;;;;;5050504;28;20032;-37
2021/09/10 08:46:15;;;;;;;4.47;4.05;;;26.60;62.70;;;;;;5051408;28;20041;-37
2021/09/10 08:48:47;;;;;;;5.47;4.50;;;26.20;62.20;;;;;;5051733;28;20025;-36
2021/09/10 08:51:14;;;;;;;5.45;4.38;;;26.10;63.30;;;;;;5051771;28;20106;-36
2021/09/10 08:53:40;;;;;;;6.75;4.57;;;25.60;64.20;;;;;;5051180;28;20025;-37
2021/09/10 08:56:06;;;;;;;6.85;3.90;;;25.30;65.20;;;;;;5051466;28;20059;-37
2021/09/10 08:58:31;;;;;;;5.30;3.92;;;24.70;68.00;;;;;;5051778;28;20112;-37
2021/09/10 09:00:59;;;;;;;12.18;4.82;;;25.40;65.50;;;;;;5051616;28;20450;-37
2021/09/10 09:03:28;;;;;;;5.75;4.82;;;25.50;65.40;;;;;;5053312;28;20452;-37
2021/09/10 09:05:53;;;;;;;9.40;5.95;;;25.40;65.20;;;;;;5055940;28;20061;-36
2021/09/10 09:08:19;;;;;;;9.52;5.75;;;24.80;67.40;;;;;;5055887;28;20053;-37
2021/09/10 09:11:02;;;;;;;8.13;5.40;;;25.80;63.80;;;;;;5056263;28;20028;-38
2021/09/10 09:13:39;;;;;;;6.38;5.75;;;26.30;63.00;;;;;;5054655;28;20032;-36
2021/09/10 09:16:37;;;;;;;7.68;6.55;;;26.40;62.10;;;;;;5054461;28;20027;-41
2021/09/10 09:19:07;;;;;;;10.60;6.35;;;25.60;64.50;;;;;;5055354;28;20036;-36
2021/09/10 09:21:38;;;;;;;8.43;6.28;;;26.30;63.00;;;;;;5054014;28;20500;-37
2021/09/10 09:24:13;;;;;;;6.30;5.43;;;27.80;59.00;;;;;;5054997;28;20017;-37
2021/09/10 09:26:40;;;;;;;8.93;6.63;;;27.70;57.30;;;;;;5054918;28;20124;-37
2021/09/10 09:29:16;;;;;;;10.35;7.55;;;26.80;60.00;;;;;;5056488;28;20501;-38
2021/09/10 09:31:56;;;;;;;12.65;7.40;;;26.20;61.80;;;;;;5055430;28;20113;-36
2021/09/10 09:34:47;;;;;;;10.98;7.75;;;26.10;62.50;;;;;;5055067;28;20032;-37
2021/09/10 09:37:15;;;;;;;14.38;8.73;;;25.70;63.30;;;;;;5054851;28;20036;-36
2021/09/10 09:39:55;;;;;;;10.80;8.68;;;25.90;62.50;;;;;;5055310;28;20051;-36
2021/09/10 09:42:30;;;;;;;9.82;8.93;;;25.20;64.70;;;;;;5054353;28;20488;-45
2021/09/10 09:45:16;;;;;;;12.15;8.15;;;24.30;68.40;;;;;;5053737;28;20046;-36
2021/09/10 09:47:43;;;;;;;10.75;8.27;;;24.90;65.50;;;;;;5053496;28;20075;-38
2021/09/10 09:50:12;;;;;;;10.20;8.27;;;24.80;65.90;;;;;;5054979;28;20426;-36
2021/09/10 09:52:39;;;;;;;9.35;8.15;;;24.30;68.00;;;;;;5054836;28;20024;-37
2021/09/10 09:55:07;;;;;;;11.73;7.47;;;25.30;65.60;;;;;;5054670;28;20052;-36
2021/09/10 09:57:33;;;;;;;9.57;6.13;;;25.80;64.00;;;;;;5053278;28;20042;-36
2021/09/10 10:00:03;;;;;;;6.68;5.75;;;26.20;62.10;;;;;;5054637;28;20329;-37
2021/09/10 10:02:29;;;;;;;7.43;5.93;;;26.10;62.70;;;;;;5054617;28;20449;-36
2021/09/10 10:04:58;;;;;;;7.00;5.57;;;26.00;63.00;;;;;;5054847;28;20142;-37
2021/09/10 10:07:29;;;;;;;11.52;6.30;;;25.20;65.40;;;;;;5054949;28;20032;-37
2021/09/10 10:09:56;;;;;;;9.40;5.75;;;25.30;65.80;;;;;;5052977;28;20029;-37
2021/09/10 10:12:26;;;;;;;8.30;5.10;;;25.90;63.90;;;;;;5055013;28;20025;-38
2021/09/10 10:14:52;;;;;;;5.40;4.38;;;26.30;62.10;;;;;;5053939;28;20059;-38
2021/09/10 10:17:29;;;;;;;6.38;4.15;;;26.20;62.00;;;;;;5054529;28;20041;-37
2021/09/10 10:19:55;;;;;;;5.13;3.90;;;26.40;61.20;;;;;;5054202;28;20056;-38
2021/09/10 10:22:40;;;;;;;5.13;3.65;;;25.80;62.40;;;;;;5054202;28;20025;-38
2021/09/10 10:25:11;;;;;;;5.07;3.33;;;25.80;63.00;;;;;;5054769;28;20424;-38
2021/09/10 10:27:37;;;;;;;5.38;2.75;;;26.40;60.60;;;;;;5053564;28;20040;-36
2021/09/10 10:30:16;;;;;;;7.25;3.38;;;26.60;59.80;;;;;;5054595;28;20040;-37
2021/09/10 10:32:51;;;;;;;4.88;3.00;;;26.40;60.20;;;;;;5053868;28;20059;-36
2021/09/10 10:35:26;;;;;;;18.00;4.25;;;26.30;59.80;;;;;;5056329;28;20529;-37
2021/09/10 10:38:11;;;;;;;7.85;2.80;;;25.70;61.50;;;;;;5054037;28;20025;-37
2021/09/10 10:40:44;;;;;;;4.40;2.80;;;27.20;58.50;;;;;;5054542;28;20020;-37
2021/09/10 10:43:20;;;;;;;7.47;3.85;;;28.20;55.10;;;;;;5054635;28;20028;-37
2021/09/10 10:45:45;;;;;;;7.88;3.22;;;28.60;53.30;;;;;;5053427;28;20025;-37
2021/09/10 10:48:29;;;;;;;6.30;3.67;;;27.40;56.30;;;;;;5052561;28;20052;-37
2021/09/10 10:51:01;;;;;;;7.30;3.60;;;26.40;59.40;;;;;;5054335;28;20037;-38
2021/09/10 10:53:27;;;;;;;5.40;3.45;;;26.30;60.10;;;;;;5054093;28;20112;-37
2021/09/10 10:55:53;;;;;;;5.00;3.47;;;26.50;59.30;;;;;;5054323;28;20123;-36
2021/09/10 10:58:23;;;;;;;5.53;3.92;;;26.80;58.70;;;;;;5053957;28;20037;-37
2021/09/10 11:00:58;;;;;;;8.70;4.20;;;25.70;61.10;;;;;;5053998;28;20036;-39
2021/09/10 11:03:23;;;;;;;5.05;3.08;;;25.60;61.70;;;;;;5053828;28;20059;-37
2021/09/10 11:05:52;;;;;;;7.55;3.25;;;25.60;61.80;;;;;;5053676;28;20029;-37
2021/09/10 11:08:19;;;;;;;5.22;3.35;;;25.90;61.50;;;;;;5053316;28;20055;-38
2021/09/10 11:10:50;;;;;;;5.45;3.15;;;26.60;59.80;;;;;;5053988;28;20021;-47
2021/09/10 11:13:16;;;;;;;5.65;3.22;;;26.40;59.70;;;;;;5052351;28;20032;-37
2021/09/10 11:15:42;;;;;;;7.75;3.72;;;25.30;63.10;;;;;;5053326;28;20021;-36
2021/09/10 11:18:12;;;;;;;9.00;4.57;;;25.60;62.30;;;;;;5054320;28;20112;-37
2021/09/10 11:20:46;;;;;;;4.03;3.58;;;25.10;64.60;;;;;;5053714;28;20029;-37
2021/09/10 11:23:18;;;;;;;6.32;4.28;;;24.90;65.80;;;;;;5054464;28;20033;-37
2021/09/10 11:25:51;;;;;;;4.38;3.88;;;25.00;65.30;;;;;;5053982;28;20116;-39
2021/09/10 11:28:18;;;;;;;12.38;3.95;;;24.80;65.80;;;;;;5052832;28;20025;-37
2021/09/10 11:30:45;;;;;;;9.82;4.60;;;24.70;67.00;;;;;;5053544;28;20025;-37
2021/09/10 11:33:11;;;;;;;7.28;3.88;;;24.90;66.20;;;;;;5053328;28;20025;-37
2021/09/10 11:35:38;;;;;;;6.00;4.07;;;25.10;65.70;;;;;;5052480;28;20021;-38
2021/09/10 11:38:31;;;;;;;6.00;3.55;;;25.20;65.80;;;;;;5053490;28;20017;-37
2021/09/10 11:41:03;;;;;;;5.80;3.13;;;24.80;66.50;;;;;;5053217;28;20393;-37
2021/09/10 11:43:35;;;;;;;6.72;3.15;;;24.50;67.30;;;;;;5052321;28;20032;-38
2021/09/10 11:46:01;;;;;;;4.72;3.58;;;24.40;67.40;;;;;;5051632;28;20079;-37
2021/09/10 11:48:32;;;;;;;5.68;4.32;;;24.30;69.40;;;;;;5053435;28;20025;-37
2021/09/10 11:51:03;;;;;;;6.13;4.22;;;24.60;69.00;;;;;;5053170;28;20432;-37
2021/09/10 11:53:35;;;;;;;9.25;5.20;;;24.80;69.00;;;;;;5053114;28;20029;-37
2021/09/10 11:56:06;;;;;;;5.60;4.95;;;24.60;69.40;;;;;;5053465;28;20096;-38
2021/09/10 11:58:35;;;;;;;8.93;5.35;;;24.60;70.10;;;;;;5051810;28;20025;-36
2021/09/10 12:01:15;;;;;;;4.70;4.13;;;24.50;70.40;;;;;;5053197;28;20032;-38
2021/09/10 12:03:51;;;;;;;6.15;4.38;;;24.40;70.60;;;;;;5053093;28;20029;-37
2021/09/10 12:06:47;;;;;;;8.43;3.42;;;24.80;69.50;;;;;;5052514;28;20448;-37
2021/09/10 12:09:17;;;;;;;6.68;3.85;;;24.40;68.90;;;;;;5052421;28;20107;-37
2021/09/10 12:12:04;;;;;;;5.60;3.65;;;24.40;68.50;;;;;;5052800;28;20025;-38
2021/09/10 12:14:53;;;;;;;6.53;4.30;;;25.10;65.90;;;;;;5052746;28;20119;-37
2021/09/10 12:17:19;;;;;;;6.05;3.50;;;25.00;66.30;;;;;;5048672;28;20175;-36
2021/09/10 12:20:04;;;;;;;14.52;4.60;;;25.30;66.10;;;;;;5052533;28;20048;-37
2021/09/10 12:22:50;;;;;;;5.80;3.13;;;24.80;69.20;;;;;;5052989;28;20021;-36
2021/09/10 12:25:23;;;;;;;5.07;3.55;;;25.10;67.60;;;;;;5052468;28;20326;-37
2021/09/10 12:28:07;;;;;;;5.90;3.45;;;25.20;66.10;;;;;;5052805;28;20044;-37
2021/09/10 12:30:38;;;;;;;7.65;4.53;;;25.40;66.50;;;;;;5052410;28;20308;-37
2021/09/10 12:33:06;;;;;;;5.10;3.45;;;25.40;65.90;;;;;;5052200;28;20040;-36
2021/09/10 12:35:33;;;;;;;7.45;3.47;;;25.10;67.40;;;;;;5052256;28;20029;-36
2021/09/10 12:38:04;;;;;;;3.60;2.55;;;25.30;65.60;;;;;;5051845;28;20118;-36